sensor_id;sensor_type;location;lat;lon;timestamp;P1;durP1;ratioP1;P2;durP2;ratioP2
66886;SDS011;53798;51.680;5.976;2022-10-28T00:03:48;14.52;;;6.13;;
66886;SDS011;53798;51.680;5.976;2022-10-28T00:06:22;13.73;;;5.93;;
66886;SDS011;53798;51.680;5.976;2022-10-28T00:08:56;14.50;;;6.00;;
66886;SDS011;53798;51.680;5.976;2022-10-28T00:11:28;11.45;;;5.82;;
66886;SDS011;53798;51.680;5.976;2022-10-28T00:14:00;14.32;;;5.70;;
66886;SDS011;53798;51.680;5.976;2022-10-28T00:16:31;12.68;;;5.93;;
66886;SDS011;53798;51.680;5.976;2022-10-28T00:19:00;15.30;;;5.55;;
66886;SDS011;53798;51.680;5.976;2022-10-28T00:21:31;17.17;;;5.32;;
66886;SDS011;53798;51.680;5.976;2022-10-28T00:24:01;13.77;;;5.65;;
66886;SDS011;53798;51.680;5.976;2022-10-28T00:26:31;15.35;;;6.13;;
66886;SDS011;53798;51.680;5.976;2022-10-28T00:29:05;16.67;;;6.68;;
66886;SDS011;53798;51.680;5.976;2022-10-28T00:31:38;10.40;;;6.22;;
66886;SDS011;53798;51.680;5.976;2022-10-28T00:34:10;17.08;;;5.82;;
66886;SDS011;53798;51.680;5.976;2022-10-28T00:36:44;15.05;;;5.72;;
66886;SDS011;53798;51.680;5.976;2022-10-28T00:39:14;11.25;;;5.35;;
66886;SDS011;53798;51.680;5.976;2022-10-28T00:41:48;16.98;;;5.75;;
66886;SDS011;53798;51.680;5.976;2022-10-28T00:50:28;14.57;;;5.97;;
66886;SDS011;53798;51.680;5.976;2022-10-28T00:55:47;14.95;;;6.97;;
66886;SDS011;53798;51.680;5.976;2022-10-28T00:58:15;18.98;;;6.60;;
66886;SDS011;53798;51.680;5.976;2022-10-28T01:00:48;18.85;;;6.78;;
66886;SDS011;53798;51.680;5.976;2022-10-28T01:03:15;14.73;;;7.13;;
66886;SDS011;53798;51.680;5.976;2022-10-28T01:05:44;13.52;;;6.60;;
66886;SDS011;53798;51.680;5.976;2022-10-28T01:08:14;16.20;;;6.60;;
66886;SDS011;53798;51.680;5.976;2022-10-28T01:14:23;13.48;;;6.32;;
66886;SDS011;53798;51.680;5.976;2022-10-28T01:19:52;12.40;;;6.40;;
66886;SDS011;53798;51.680;5.976;2022-10-28T01:28:11;13.05;;;6.90;;
66886;SDS011;53798;51.680;5.976;2022-10-28T01:33:53;11.73;;;5.85;;
66886;SDS011;53798;51.680;5.976;2022-10-28T01:37:17;16.13;;;6.43;;
66886;SDS011;53798;51.680;5.976;2022-10-28T01:39:37;17.40;;;5.93;;
66886;SDS011;53798;51.680;5.976;2022-10-28T01:45:25;14.43;;;6.15;;
66886;SDS011;53798;51.680;5.976;2022-10-28T01:48:09;11.70;;;6.10;;
66886;SDS011;53798;51.680;5.976;2022-10-28T01:51:28;15.75;;;6.60;;
66886;SDS011;53798;51.680;5.976;2022-10-28T01:53:42;16.15;;;5.60;;
66886;SDS011;53798;51.680;5.976;2022-10-28T01:56:16;16.38;;;5.95;;
66886;SDS011;53798;51.680;5.976;2022-10-28T01:58:52;12.88;;;6.32;;
66886;SDS011;53798;51.680;5.976;2022-10-28T02:01:24;10.90;;;5.65;;
66886;SDS011;53798;51.680;5.976;2022-10-28T02:03:55;16.05;;;5.88;;
66886;SDS011;53798;51.680;5.976;2022-10-28T02:06:24;18.05;;;5.97;;
66886;SDS011;53798;51.680;5.976;2022-10-28T02:09:06;15.77;;;5.63;;
66886;SDS011;53798;51.680;5.976;2022-10-28T02:15:13;12.20;;;5.63;;
66886;SDS011;53798;51.680;5.976;2022-10-28T02:21:02;14.98;;;5.38;;
66886;SDS011;53798;51.680;5.976;2022-10-28T02:24:18;17.83;;;5.22;;
66886;SDS011;53798;51.680;5.976;2022-10-28T02:26:56;12.88;;;5.88;;
66886;SDS011;53798;51.680;5.976;2022-10-28T02:29:44;14.68;;;5.95;;
66886;SDS011;53798;51.680;5.976;2022-10-28T02:32:30;13.10;;;5.78;;
66886;SDS011;53798;51.680;5.976;2022-10-28T02:35:05;9.57;;;5.20;;
66886;SDS011;53798;51.680;5.976;2022-10-28T02:37:40;14.50;;;5.60;;
66886;SDS011;53798;51.680;5.976;2022-10-28T02:40:16;16.48;;;5.22;;
66886;SDS011;53798;51.680;5.976;2022-10-28T02:42:49;13.95;;;5.15;;
66886;SDS011;53798;51.680;5.976;2022-10-28T02:45:32;10.50;;;5.57;;
66886;SDS011;53798;51.680;5.976;2022-10-28T02:48:15;17.30;;;5.82;;
66886;SDS011;53798;51.680;5.976;2022-10-28T02:51:05;16.35;;;5.47;;
66886;SDS011;53798;51.680;5.976;2022-10-28T02:53:43;14.70;;;5.28;;
66886;SDS011;53798;51.680;5.976;2022-10-28T02:56:22;15.20;;;5.30;;
66886;SDS011;53798;51.680;5.976;2022-10-28T02:58:49;13.80;;;5.18;;
66886;SDS011;53798;51.680;5.976;2022-10-28T03:01:16;12.20;;;5.05;;
66886;SDS011;53798;51.680;5.976;2022-10-28T03:03:44;14.07;;;4.97;;
66886;SDS011;53798;51.680;5.976;2022-10-28T03:06:11;14.93;;;5.00;;
66886;SDS011;53798;51.680;5.976;2022-10-28T03:08:38;18.83;;;5.25;;
66886;SDS011;53798;51.680;5.976;2022-10-28T03:11:10;13.10;;;5.72;;
66886;SDS011;53798;51.680;5.976;2022-10-28T03:13:37;14.30;;;5.10;;
66886;SDS011;53798;51.680;5.976;2022-10-28T03:16:04;12.10;;;4.95;;
66886;SDS011;53798;51.680;5.976;2022-10-28T03:18:31;13.65;;;5.05;;
66886;SDS011;53798;51.680;5.976;2022-10-28T03:20:58;12.40;;;4.95;;
66886;SDS011;53798;51.680;5.976;2022-10-28T03:23:25;15.75;;;5.10;;
66886;SDS011;53798;51.680;5.976;2022-10-28T03:25:52;12.00;;;5.32;;
66886;SDS011;53798;51.680;5.976;2022-10-28T03:28:19;14.73;;;5.30;;
66886;SDS011;53798;51.680;5.976;2022-10-28T03:30:46;20.67;;;5.70;;
66886;SDS011;53798;51.680;5.976;2022-10-28T03:33:13;13.07;;;4.90;;
66886;SDS011;53798;51.680;5.976;2022-10-28T03:35:40;14.73;;;5.05;;
66886;SDS011;53798;51.680;5.976;2022-10-28T03:38:07;13.80;;;4.90;;
66886;SDS011;53798;51.680;5.976;2022-10-28T03:40:34;15.63;;;5.18;;
66886;SDS011;53798;51.680;5.976;2022-10-28T03:43:01;14.43;;;5.15;;
66886;SDS011;53798;51.680;5.976;2022-10-28T03:45:28;16.10;;;5.57;;
66886;SDS011;53798;51.680;5.976;2022-10-28T03:48:00;12.45;;;5.10;;
66886;SDS011;53798;51.680;5.976;2022-10-28T03:50:27;14.48;;;5.40;;
66886;SDS011;53798;51.680;5.976;2022-10-28T03:52:54;17.25;;;5.28;;
66886;SDS011;53798;51.680;5.976;2022-10-28T03:55:21;16.15;;;5.75;;
66886;SDS011;53798;51.680;5.976;2022-10-28T03:57:49;11.07;;;5.32;;
66886;SDS011;53798;51.680;5.976;2022-10-28T04:00:17;11.10;;;5.40;;
66886;SDS011;53798;51.680;5.976;2022-10-28T04:02:49;14.50;;;5.78;;
66886;SDS011;53798;51.680;5.976;2022-10-28T04:05:18;16.25;;;5.85;;
66886;SDS011;53798;51.680;5.976;2022-10-28T04:07:46;15.70;;;5.78;;
66886;SDS011;53798;51.680;5.976;2022-10-28T04:10:14;12.18;;;5.10;;
66886;SDS011;53798;51.680;5.976;2022-10-28T04:12:41;15.77;;;5.60;;
66886;SDS011;53798;51.680;5.976;2022-10-28T04:15:08;13.55;;;5.30;;
66886;SDS011;53798;51.680;5.976;2022-10-28T04:17:35;12.55;;;5.70;;
66886;SDS011;53798;51.680;5.976;2022-10-28T04:20:02;14.43;;;5.70;;
66886;SDS011;53798;51.680;5.976;2022-10-28T04:22:30;10.95;;;5.32;;
66886;SDS011;53798;51.680;5.976;2022-10-28T04:24:57;12.23;;;5.50;;
66886;SDS011;53798;51.680;5.976;2022-10-28T04:27:23;16.80;;;6.03;;
66886;SDS011;53798;51.680;5.976;2022-10-28T04:29:51;16.35;;;5.18;;
66886;SDS011;53798;51.680;5.976;2022-10-28T04:32:17;14.05;;;5.53;;
66886;SDS011;53798;51.680;5.976;2022-10-28T04:34:45;13.52;;;5.20;;
66886;SDS011;53798;51.680;5.976;2022-10-28T04:37:13;14.18;;;5.78;;
66886;SDS011;53798;51.680;5.976;2022-10-28T04:42:13;15.52;;;5.60;;
66886;SDS011;53798;51.680;5.976;2022-10-28T04:44:40;15.68;;;5.85;;
66886;SDS011;53798;51.680;5.976;2022-10-28T04:47:07;18.23;;;6.15;;
66886;SDS011;53798;51.680;5.976;2022-10-28T04:49:34;14.23;;;5.50;;
66886;SDS011;53798;51.680;5.976;2022-10-28T04:52:04;14.32;;;5.65;;
66886;SDS011;53798;51.680;5.976;2022-10-28T04:54:31;15.43;;;5.20;;
66886;SDS011;53798;51.680;5.976;2022-10-28T04:56:58;18.42;;;6.05;;
66886;SDS011;53798;51.680;5.976;2022-10-28T04:59:26;17.67;;;5.55;;
66886;SDS011;53798;51.680;5.976;2022-10-28T05:01:53;11.80;;;5.90;;
66886;SDS011;53798;51.680;5.976;2022-10-28T05:04:20;11.43;;;5.28;;
66886;SDS011;53798;51.680;5.976;2022-10-28T05:06:49;18.88;;;5.45;;
66886;SDS011;53798;51.680;5.976;2022-10-28T05:09:18;16.70;;;5.68;;
66886;SDS011;53798;51.680;5.976;2022-10-28T05:11:46;13.05;;;4.88;;
66886;SDS011;53798;51.680;5.976;2022-10-28T05:14:13;14.18;;;5.45;;
66886;SDS011;53798;51.680;5.976;2022-10-28T05:16:40;13.32;;;4.88;;
66886;SDS011;53798;51.680;5.976;2022-10-28T05:19:07;16.52;;;5.53;;
66886;SDS011;53798;51.680;5.976;2022-10-28T05:21:34;16.08;;;5.43;;
66886;SDS011;53798;51.680;5.976;2022-10-28T05:24:01;16.13;;;5.15;;
66886;SDS011;53798;51.680;5.976;2022-10-28T05:26:28;14.82;;;4.88;;
66886;SDS011;53798;51.680;5.976;2022-10-28T05:28:55;21.38;;;6.47;;
66886;SDS011;53798;51.680;5.976;2022-10-28T05:31:23;11.50;;;4.80;;
66886;SDS011;53798;51.680;5.976;2022-10-28T05:33:50;15.45;;;5.40;;
66886;SDS011;53798;51.680;5.976;2022-10-28T05:36:17;10.02;;;4.95;;
66886;SDS011;53798;51.680;5.976;2022-10-28T05:38:44;18.17;;;5.18;;
66886;SDS011;53798;51.680;5.976;2022-10-28T05:41:12;12.95;;;4.93;;
66886;SDS011;53798;51.680;5.976;2022-10-28T05:43:39;17.77;;;4.93;;
66886;SDS011;53798;51.680;5.976;2022-10-28T05:46:07;12.70;;;4.55;;
66886;SDS011;53798;51.680;5.976;2022-10-28T05:48:36;16.45;;;5.40;;
66886;SDS011;53798;51.680;5.976;2022-10-28T05:51:03;13.38;;;5.30;;
66886;SDS011;53798;51.680;5.976;2022-10-28T05:53:30;12.40;;;4.60;;
66886;SDS011;53798;51.680;5.976;2022-10-28T05:55:57;12.57;;;4.70;;
66886;SDS011;53798;51.680;5.976;2022-10-28T05:58:24;14.98;;;4.70;;
66886;SDS011;53798;51.680;5.976;2022-10-28T06:00:51;12.70;;;4.60;;
66886;SDS011;53798;51.680;5.976;2022-10-28T06:03:18;12.32;;;4.75;;
66886;SDS011;53798;51.680;5.976;2022-10-28T06:05:45;15.25;;;4.78;;
66886;SDS011;53798;51.680;5.976;2022-10-28T06:08:12;9.85;;;4.82;;
66886;SDS011;53798;51.680;5.976;2022-10-28T06:10:40;18.42;;;5.22;;
66886;SDS011;53798;51.680;5.976;2022-10-28T06:13:24;15.23;;;4.70;;
66886;SDS011;53798;51.680;5.976;2022-10-28T06:15:53;15.13;;;4.95;;
66886;SDS011;53798;51.680;5.976;2022-10-28T06:18:22;12.95;;;4.35;;
66886;SDS011;53798;51.680;5.976;2022-10-28T06:20:51;14.35;;;4.63;;
66886;SDS011;53798;51.680;5.976;2022-10-28T06:23:25;11.00;;;4.32;;
66886;SDS011;53798;51.680;5.976;2022-10-28T06:25:55;11.55;;;4.70;;
66886;SDS011;53798;51.680;5.976;2022-10-28T06:28:28;16.55;;;4.57;;
66886;SDS011;53798;51.680;5.976;2022-10-28T06:31:00;15.23;;;4.60;;
66886;SDS011;53798;51.680;5.976;2022-10-28T06:33:32;14.40;;;4.80;;
66886;SDS011;53798;51.680;5.976;2022-10-28T06:36:00;14.70;;;4.90;;
66886;SDS011;53798;51.680;5.976;2022-10-28T06:38:28;13.57;;;4.90;;
66886;SDS011;53798;51.680;5.976;2022-10-28T06:40:57;17.13;;;4.13;;
66886;SDS011;53798;51.680;5.976;2022-10-28T06:43:27;12.93;;;4.78;;
66886;SDS011;53798;51.680;5.976;2022-10-28T06:46:00;14.27;;;4.97;;
66886;SDS011;53798;51.680;5.976;2022-10-28T06:48:29;10.95;;;4.68;;
66886;SDS011;53798;51.680;5.976;2022-10-28T06:50:57;14.10;;;4.57;;
66886;SDS011;53798;51.680;5.976;2022-10-28T06:53:24;15.32;;;4.53;;
66886;SDS011;53798;51.680;5.976;2022-10-28T06:55:55;20.92;;;4.88;;
66886;SDS011;53798;51.680;5.976;2022-10-28T06:58:24;13.43;;;4.78;;
66886;SDS011;53798;51.680;5.976;2022-10-28T07:00:51;13.82;;;4.45;;
66886;SDS011;53798;51.680;5.976;2022-10-28T07:03:19;13.00;;;4.63;;
66886;SDS011;53798;51.680;5.976;2022-10-28T07:05:48;10.35;;;4.53;;
66886;SDS011;53798;51.680;5.976;2022-10-28T07:08:17;20.15;;;5.50;;
66886;SDS011;53798;51.680;5.976;2022-10-28T07:10:51;13.43;;;5.20;;
66886;SDS011;53798;51.680;5.976;2022-10-28T07:13:21;15.55;;;4.90;;
66886;SDS011;53798;51.680;5.976;2022-10-28T07:15:52;16.70;;;4.60;;
66886;SDS011;53798;51.680;5.976;2022-10-28T07:18:22;18.00;;;5.05;;
66886;SDS011;53798;51.680;5.976;2022-10-28T07:20:51;19.58;;;5.07;;
66886;SDS011;53798;51.680;5.976;2022-10-28T07:23:18;17.65;;;5.13;;
66886;SDS011;53798;51.680;5.976;2022-10-28T07:25:52;15.00;;;4.63;;
66886;SDS011;53798;51.680;5.976;2022-10-28T07:28:22;12.85;;;5.20;;
66886;SDS011;53798;51.680;5.976;2022-10-28T07:30:51;19.15;;;4.70;;
66886;SDS011;53798;51.680;5.976;2022-10-28T07:33:19;17.85;;;5.07;;
66886;SDS011;53798;51.680;5.976;2022-10-28T07:35:46;16.25;;;4.68;;
66886;SDS011;53798;51.680;5.976;2022-10-28T07:38:13;17.83;;;4.65;;
66886;SDS011;53798;51.680;5.976;2022-10-28T07:40:41;20.60;;;4.97;;
66886;SDS011;53798;51.680;5.976;2022-10-28T07:43:08;13.63;;;4.43;;
66886;SDS011;53798;51.680;5.976;2022-10-28T07:45:35;15.88;;;4.45;;
66886;SDS011;53798;51.680;5.976;2022-10-28T07:48:03;12.40;;;4.85;;
66886;SDS011;53798;51.680;5.976;2022-10-28T07:50:31;14.27;;;4.93;;
66886;SDS011;53798;51.680;5.976;2022-10-28T07:52:59;12.63;;;4.63;;
66886;SDS011;53798;51.680;5.976;2022-10-28T07:55:26;12.32;;;4.28;;
66886;SDS011;53798;51.680;5.976;2022-10-28T07:57:53;13.77;;;4.70;;
66886;SDS011;53798;51.680;5.976;2022-10-28T08:00:21;18.35;;;4.70;;
66886;SDS011;53798;51.680;5.976;2022-10-28T08:02:48;18.13;;;4.60;;
66886;SDS011;53798;51.680;5.976;2022-10-28T08:05:15;20.15;;;4.70;;
66886;SDS011;53798;51.680;5.976;2022-10-28T08:07:43;15.02;;;5.32;;
66886;SDS011;53798;51.680;5.976;2022-10-28T08:10:12;14.95;;;4.97;;
66886;SDS011;53798;51.680;5.976;2022-10-28T08:12:39;19.25;;;5.25;;
66886;SDS011;53798;51.680;5.976;2022-10-28T08:15:07;15.80;;;4.20;;
66886;SDS011;53798;51.680;5.976;2022-10-28T08:17:36;15.98;;;4.63;;
66886;SDS011;53798;51.680;5.976;2022-10-28T08:20:04;14.48;;;4.47;;
66886;SDS011;53798;51.680;5.976;2022-10-28T08:22:32;15.77;;;4.40;;
66886;SDS011;53798;51.680;5.976;2022-10-28T08:24:59;14.52;;;4.43;;
66886;SDS011;53798;51.680;5.976;2022-10-28T08:27:26;14.48;;;4.72;;
66886;SDS011;53798;51.680;5.976;2022-10-28T08:29:53;13.02;;;4.63;;
66886;SDS011;53798;51.680;5.976;2022-10-28T08:32:22;17.08;;;4.80;;
66886;SDS011;53798;51.680;5.976;2022-10-28T08:34:51;22.13;;;5.80;;
66886;SDS011;53798;51.680;5.976;2022-10-28T08:37:18;19.58;;;4.97;;
66886;SDS011;53798;51.680;5.976;2022-10-28T08:39:47;13.48;;;4.45;;
66886;SDS011;53798;51.680;5.976;2022-10-28T08:42:19;12.43;;;4.35;;
66886;SDS011;53798;51.680;5.976;2022-10-28T08:47:54;19.17;;;4.82;;
66886;SDS011;53798;51.680;5.976;2022-10-28T08:50:42;15.85;;;4.38;;
66886;SDS011;53798;51.680;5.976;2022-10-28T08:53:25;19.35;;;4.93;;
66886;SDS011;53798;51.680;5.976;2022-10-28T08:56:04;17.25;;;4.75;;
66886;SDS011;53798;51.680;5.976;2022-10-28T08:58:42;19.05;;;5.15;;
66886;SDS011;53798;51.680;5.976;2022-10-28T09:01:15;11.73;;;4.57;;
66886;SDS011;53798;51.680;5.976;2022-10-28T09:06:33;16.48;;;5.10;;
66886;SDS011;53798;51.680;5.976;2022-10-28T09:09:00;17.67;;;5.18;;
66886;SDS011;53798;51.680;5.976;2022-10-28T09:11:48;11.52;;;4.38;;
66886;SDS011;53798;51.680;5.976;2022-10-28T09:14:24;19.88;;;5.68;;
66886;SDS011;53798;51.680;5.976;2022-10-28T09:17:16;25.27;;;5.32;;
66886;SDS011;53798;51.680;5.976;2022-10-28T09:19:50;17.08;;;5.03;;
66886;SDS011;53798;51.680;5.976;2022-10-28T09:25:20;14.05;;;5.05;;
66886;SDS011;53798;51.680;5.976;2022-10-28T09:27:55;11.98;;;4.40;;
66886;SDS011;53798;51.680;5.976;2022-10-28T09:30:53;17.60;;;4.57;;
66886;SDS011;53798;51.680;5.976;2022-10-28T09:40:14;12.80;;;4.70;;
66886;SDS011;53798;51.680;5.976;2022-10-28T09:42:57;13.75;;;4.30;;
66886;SDS011;53798;51.680;5.976;2022-10-28T09:45:51;10.13;;;4.60;;
66886;SDS011;53798;51.680;5.976;2022-10-28T09:51:02;18.92;;;4.90;;
66886;SDS011;53798;51.680;5.976;2022-10-28T09:56:27;15.25;;;4.63;;
66886;SDS011;53798;51.680;5.976;2022-10-28T09:58:57;16.02;;;3.95;;
66886;SDS011;53798;51.680;5.976;2022-10-28T10:01:31;15.23;;;4.40;;
66886;SDS011;53798;51.680;5.976;2022-10-28T10:04:05;23.00;;;5.18;;
66886;SDS011;53798;51.680;5.976;2022-10-28T10:07:09;15.15;;;4.15;;
66886;SDS011;53798;51.680;5.976;2022-10-28T10:09:38;15.63;;;4.50;;
66886;SDS011;53798;51.680;5.976;2022-10-28T10:12:09;16.20;;;4.82;;
66886;SDS011;53798;51.680;5.976;2022-10-28T10:17:15;13.98;;;4.53;;
66886;SDS011;53798;51.680;5.976;2022-10-28T10:22:35;13.13;;;4.40;;
66886;SDS011;53798;51.680;5.976;2022-10-28T10:25:26;17.60;;;4.22;;
66886;SDS011;53798;51.680;5.976;2022-10-28T10:30:34;14.07;;;4.38;;
66886;SDS011;53798;51.680;5.976;2022-10-28T10:33:20;16.17;;;4.32;;
66886;SDS011;53798;51.680;5.976;2022-10-28T10:35:52;12.73;;;4.40;;
66886;SDS011;53798;51.680;5.976;2022-10-28T10:38:29;25.52;;;4.55;;
66886;SDS011;53798;51.680;5.976;2022-10-28T10:40:58;18.75;;;4.70;;
66886;SDS011;53798;51.680;5.976;2022-10-28T10:43:32;19.60;;;4.82;;
66886;SDS011;53798;51.680;5.976;2022-10-28T10:46:12;15.20;;;4.00;;
66886;SDS011;53798;51.680;5.976;2022-10-28T10:48:43;13.98;;;3.60;;
66886;SDS011;53798;51.680;5.976;2022-10-28T10:51:17;11.00;;;3.42;;
66886;SDS011;53798;51.680;5.976;2022-10-28T10:53:51;18.85;;;3.92;;
66886;SDS011;53798;51.680;5.976;2022-10-28T10:56:23;14.10;;;3.78;;
66886;SDS011;53798;51.680;5.976;2022-10-28T10:58:57;16.23;;;3.70;;
66886;SDS011;53798;51.680;5.976;2022-10-28T11:01:32;22.42;;;4.25;;
66886;SDS011;53798;51.680;5.976;2022-10-28T11:04:05;15.93;;;3.78;;
66886;SDS011;53798;51.680;5.976;2022-10-28T11:06:37;14.25;;;3.67;;
66886;SDS011;53798;51.680;5.976;2022-10-28T11:09:25;15.32;;;3.70;;
66886;SDS011;53798;51.680;5.976;2022-10-28T11:15:02;17.33;;;4.00;;
66886;SDS011;53798;51.680;5.976;2022-10-28T11:17:52;17.30;;;4.05;;
66886;SDS011;53798;51.680;5.976;2022-10-28T11:21:03;17.45;;;3.83;;
66886;SDS011;53798;51.680;5.976;2022-10-28T11:27:00;21.65;;;4.07;;
66886;SDS011;53798;51.680;5.976;2022-10-28T11:29:39;16.75;;;3.45;;
66886;SDS011;53798;51.680;5.976;2022-10-28T11:46:27;30.45;;;4.20;;
66886;SDS011;53798;51.680;5.976;2022-10-28T11:57:55;27.75;;;4.22;;
66886;SDS011;53798;51.680;5.976;2022-10-28T12:15:38;19.48;;;3.50;;
66886;SDS011;53798;51.680;5.976;2022-10-28T12:21:22;18.13;;;3.70;;
66886;SDS011;53798;51.680;5.976;2022-10-28T12:24:28;14.98;;;3.47;;
66886;SDS011;53798;51.680;5.976;2022-10-28T12:27:11;18.50;;;3.92;;
66886;SDS011;53798;51.680;5.976;2022-10-28T12:29:49;17.85;;;3.78;;
66886;SDS011;53798;51.680;5.976;2022-10-28T12:32:28;14.85;;;2.83;;
66886;SDS011;53798;51.680;5.976;2022-10-28T12:35:15;20.70;;;3.65;;
66886;SDS011;53798;51.680;5.976;2022-10-28T12:55:39;14.90;;;3.30;;
66886;SDS011;53798;51.680;5.976;2022-10-28T12:58:17;21.85;;;3.20;;
66886;SDS011;53798;51.680;5.976;2022-10-28T13:01:04;17.88;;;3.10;;
66886;SDS011;53798;51.680;5.976;2022-10-28T13:04:05;13.68;;;2.83;;
66886;SDS011;53798;51.680;5.976;2022-10-28T13:09:41;21.63;;;3.65;;
66886;SDS011;53798;51.680;5.976;2022-10-28T13:27:28;17.58;;;3.05;;
66886;SDS011;53798;51.680;5.976;2022-10-28T13:29:56;15.25;;;3.30;;
66886;SDS011;53798;51.680;5.976;2022-10-28T13:32:33;14.13;;;2.95;;
66886;SDS011;53798;51.680;5.976;2022-10-28T13:35:21;12.25;;;2.80;;
66886;SDS011;53798;51.680;5.976;2022-10-28T13:37:53;20.95;;;3.65;;
66886;SDS011;53798;51.680;5.976;2022-10-28T13:42:59;14.23;;;3.00;;
66886;SDS011;53798;51.680;5.976;2022-10-28T13:45:50;13.02;;;2.88;;
66886;SDS011;53798;51.680;5.976;2022-10-28T13:53:40;18.17;;;3.40;;
66886;SDS011;53798;51.680;5.976;2022-10-28T14:01:51;15.77;;;3.42;;
66886;SDS011;53798;51.680;5.976;2022-10-28T14:04:53;22.05;;;3.13;;
66886;SDS011;53798;51.680;5.976;2022-10-28T14:07:25;19.77;;;3.28;;
66886;SDS011;53798;51.680;5.976;2022-10-28T14:13:36;18.20;;;3.60;;
66886;SDS011;53798;51.680;5.976;2022-10-28T14:15:46;14.30;;;3.35;;
66886;SDS011;53798;51.680;5.976;2022-10-28T14:21:05;17.63;;;3.63;;
66886;SDS011;53798;51.680;5.976;2022-10-28T14:26:03;13.38;;;3.58;;
66886;SDS011;53798;51.680;5.976;2022-10-28T14:50:16;15.50;;;3.15;;
66886;SDS011;53798;51.680;5.976;2022-10-28T14:52:48;18.65;;;3.10;;
66886;SDS011;53798;51.680;5.976;2022-10-28T14:55:31;16.27;;;4.25;;
66886;SDS011;53798;51.680;5.976;2022-10-28T15:00:42;17.15;;;3.35;;
66886;SDS011;53798;51.680;5.976;2022-10-28T15:03:27;13.57;;;3.20;;
66886;SDS011;53798;51.680;5.976;2022-10-28T15:05:59;15.85;;;3.22;;
66886;SDS011;53798;51.680;5.976;2022-10-28T15:08:44;12.25;;;3.08;;
66886;SDS011;53798;51.680;5.976;2022-10-28T15:11:14;12.18;;;3.25;;
66886;SDS011;53798;51.680;5.976;2022-10-28T15:13:42;10.52;;;3.10;;
66886;SDS011;53798;51.680;5.976;2022-10-28T15:16:32;14.75;;;3.40;;
66886;SDS011;53798;51.680;5.976;2022-10-28T15:18:59;21.70;;;3.88;;
66886;SDS011;53798;51.680;5.976;2022-10-28T15:21:32;13.85;;;3.85;;
66886;SDS011;53798;51.680;5.976;2022-10-28T15:24:00;12.75;;;3.00;;
66886;SDS011;53798;51.680;5.976;2022-10-28T15:26:31;11.32;;;3.15;;
66886;SDS011;53798;51.680;5.976;2022-10-28T15:28:59;14.23;;;3.03;;
66886;SDS011;53798;51.680;5.976;2022-10-28T15:31:26;18.63;;;3.42;;
66886;SDS011;53798;51.680;5.976;2022-10-28T15:33:55;18.85;;;4.00;;
66886;SDS011;53798;51.680;5.976;2022-10-28T15:36:22;19.85;;;3.63;;
66886;SDS011;53798;51.680;5.976;2022-10-28T15:41:41;12.95;;;3.20;;
66886;SDS011;53798;51.680;5.976;2022-10-28T15:44:29;18.30;;;3.70;;
66886;SDS011;53798;51.680;5.976;2022-10-28T15:47:01;14.93;;;3.80;;
66886;SDS011;53798;51.680;5.976;2022-10-28T15:49:43;15.77;;;2.95;;
66886;SDS011;53798;51.680;5.976;2022-10-28T15:54:59;15.05;;;3.70;;
66886;SDS011;53798;51.680;5.976;2022-10-28T16:00:49;14.15;;;3.95;;
66886;SDS011;53798;51.680;5.976;2022-10-28T16:06:05;10.10;;;3.60;;
66886;SDS011;53798;51.680;5.976;2022-10-28T16:08:57;17.58;;;3.72;;
66886;SDS011;53798;51.680;5.976;2022-10-28T16:12:19;20.00;;;3.38;;
66886;SDS011;53798;51.680;5.976;2022-10-28T16:14:57;13.27;;;3.53;;
66886;SDS011;53798;51.680;5.976;2022-10-28T16:17:32;11.23;;;3.92;;
66886;SDS011;53798;51.680;5.976;2022-10-28T16:20:03;13.75;;;3.63;;
66886;SDS011;53798;51.680;5.976;2022-10-28T16:22:44;10.52;;;3.33;;
66886;SDS011;53798;51.680;5.976;2022-10-28T16:25:16;17.10;;;3.63;;
66886;SDS011;53798;51.680;5.976;2022-10-28T16:27:46;18.20;;;4.28;;
66886;SDS011;53798;51.680;5.976;2022-10-28T16:30:15;12.27;;;3.72;;
66886;SDS011;53798;51.680;5.976;2022-10-28T16:32:43;18.48;;;4.50;;
66886;SDS011;53798;51.680;5.976;2022-10-28T16:35:17;15.15;;;4.07;;
66886;SDS011;53798;51.680;5.976;2022-10-28T16:37:47;17.83;;;3.88;;
66886;SDS011;53798;51.680;5.976;2022-10-28T16:40:21;15.00;;;3.90;;
66886;SDS011;53798;51.680;5.976;2022-10-28T16:43:13;10.60;;;3.90;;
66886;SDS011;53798;51.680;5.976;2022-10-28T16:45:42;13.43;;;3.95;;
66886;SDS011;53798;51.680;5.976;2022-10-28T16:48:10;18.55;;;4.53;;
66886;SDS011;53798;51.680;5.976;2022-10-28T16:50:48;15.35;;;4.78;;
66886;SDS011;53798;51.680;5.976;2022-10-28T16:53:19;15.32;;;4.57;;
66886;SDS011;53798;51.680;5.976;2022-10-28T16:55:48;15.75;;;4.45;;
66886;SDS011;53798;51.680;5.976;2022-10-28T16:58:15;16.73;;;4.28;;
66886;SDS011;53798;51.680;5.976;2022-10-28T17:00:47;16.08;;;3.78;;
66886;SDS011;53798;51.680;5.976;2022-10-28T17:03:14;15.40;;;4.60;;
66886;SDS011;53798;51.680;5.976;2022-10-28T17:05:41;11.00;;;3.72;;
66886;SDS011;53798;51.680;5.976;2022-10-28T17:08:10;9.90;;;3.65;;
66886;SDS011;53798;51.680;5.976;2022-10-28T17:10:38;14.40;;;4.45;;
66886;SDS011;53798;51.680;5.976;2022-10-28T17:13:12;11.90;;;3.70;;
66886;SDS011;53798;51.680;5.976;2022-10-28T17:15:41;15.68;;;4.22;;
66886;SDS011;53798;51.680;5.976;2022-10-28T17:18:09;18.25;;;4.45;;
66886;SDS011;53798;51.680;5.976;2022-10-28T17:20:39;19.42;;;4.78;;
66886;SDS011;53798;51.680;5.976;2022-10-28T17:23:09;19.85;;;5.25;;
66886;SDS011;53798;51.680;5.976;2022-10-28T17:25:38;17.75;;;5.15;;
66886;SDS011;53798;51.680;5.976;2022-10-28T17:28:11;25.17;;;5.45;;
66886;SDS011;53798;51.680;5.976;2022-10-28T17:30:39;18.92;;;5.85;;
66886;SDS011;53798;51.680;5.976;2022-10-28T17:33:07;21.90;;;5.85;;
66886;SDS011;53798;51.680;5.976;2022-10-28T17:35:34;22.55;;;6.00;;
66886;SDS011;53798;51.680;5.976;2022-10-28T17:38:01;21.35;;;6.32;;
66886;SDS011;53798;51.680;5.976;2022-10-28T17:40:28;19.13;;;5.88;;
66886;SDS011;53798;51.680;5.976;2022-10-28T17:42:58;17.52;;;5.70;;
66886;SDS011;53798;51.680;5.976;2022-10-28T17:45:25;14.15;;;5.72;;
66886;SDS011;53798;51.680;5.976;2022-10-28T17:47:53;16.08;;;5.80;;
66886;SDS011;53798;51.680;5.976;2022-10-28T17:50:21;17.58;;;5.63;;
66886;SDS011;53798;51.680;5.976;2022-10-28T17:52:48;17.23;;;6.47;;
66886;SDS011;53798;51.680;5.976;2022-10-28T17:55:15;15.70;;;5.55;;
66886;SDS011;53798;51.680;5.976;2022-10-28T17:57:42;17.67;;;6.00;;
66886;SDS011;53798;51.680;5.976;2022-10-28T18:00:11;18.10;;;6.05;;
66886;SDS011;53798;51.680;5.976;2022-10-28T18:02:39;22.70;;;5.93;;
66886;SDS011;53798;51.680;5.976;2022-10-28T18:05:06;17.45;;;5.65;;
66886;SDS011;53798;51.680;5.976;2022-10-28T18:07:34;19.27;;;5.80;;
66886;SDS011;53798;51.680;5.976;2022-10-28T18:10:01;16.95;;;5.32;;
66886;SDS011;53798;51.680;5.976;2022-10-28T18:12:28;20.30;;;6.07;;
66886;SDS011;53798;51.680;5.976;2022-10-28T18:14:56;15.70;;;5.85;;
66886;SDS011;53798;51.680;5.976;2022-10-28T18:17:23;15.32;;;5.97;;
66886;SDS011;53798;51.680;5.976;2022-10-28T18:19:50;16.92;;;6.07;;
66886;SDS011;53798;51.680;5.976;2022-10-28T18:22:17;19.17;;;6.72;;
66886;SDS011;53798;51.680;5.976;2022-10-28T18:24:44;15.88;;;6.30;;
66886;SDS011;53798;51.680;5.976;2022-10-28T18:27:11;22.75;;;7.40;;
66886;SDS011;53798;51.680;5.976;2022-10-28T18:29:38;20.25;;;6.85;;
66886;SDS011;53798;51.680;5.976;2022-10-28T18:32:06;22.60;;;7.28;;
66886;SDS011;53798;51.680;5.976;2022-10-28T18:34:33;23.10;;;7.25;;
66886;SDS011;53798;51.680;5.976;2022-10-28T18:37:00;20.45;;;8.00;;